createdAt,value
2022-07-29T00:04:14.125Z,6.60
2022-07-29T00:09:17.590Z,6.80
2022-07-29T00:14:20.880Z,7.10
2022-07-29T00:19:24.216Z,7.00
2022-07-29T00:24:28.778Z,7.50
2022-07-29T00:29:34.182Z,7.70
2022-07-29T00:34:56.659Z,8.90
2022-07-29T00:40:00.072Z,9.90
2022-07-29T00:45:03.856Z,6.70
2022-07-29T00:50:09.791Z,12.10
2022-07-29T00:55:16.058Z,12.40
2022-07-29T01:00:23.240Z,11.50
2022-07-29T01:05:48.458Z,10.50
2022-07-29T01:10:53.727Z,10.60
2022-07-29T01:16:04.873Z,9.50
2022-07-29T01:21:52.586Z,10.00
2022-07-29T01:27:10.179Z,8.40
2022-07-29T01:32:27.982Z,11.60
2022-07-29T01:37:51.675Z,9.60
2022-07-29T01:42:58.743Z,8.30
2022-07-29T01:48:08.097Z,10.10
2022-07-29T01:53:14.224Z,10.00
2022-07-29T01:58:20.574Z,8.00
2022-07-29T02:03:24.962Z,7.90
2022-07-29T02:08:30.607Z,8.80
2022-07-29T02:13:36.972Z,8.00
2022-07-29T02:18:43.246Z,9.50
2022-07-29T02:23:51.355Z,9.80
2022-07-29T02:28:58.683Z,8.10
2022-07-29T02:34:04.942Z,8.60
2022-07-29T02:39:10.821Z,10.40
2022-07-29T02:44:23.051Z,8.70
2022-07-29T02:49:40.229Z,7.90
2022-07-29T02:54:48.665Z,6.90
2022-07-29T02:59:55.877Z,7.10
2022-07-29T03:05:01.088Z,7.90
2022-07-29T03:10:07.696Z,6.70
2022-07-29T03:15:17.622Z,14.40
2022-07-29T03:20:22.050Z,18.70
2022-07-29T03:25:28.516Z,23.90
2022-07-29T03:30:32.188Z,18.00
2022-07-29T03:35:35.458Z,14.30
2022-07-29T03:40:45.088Z,12.10
2022-07-29T03:45:54.742Z,7.20
2022-07-29T03:50:58.123Z,7.20
2022-07-29T03:56:03.780Z,7.90
2022-07-29T04:01:07.474Z,6.00
2022-07-29T04:06:10.663Z,8.70
2022-07-29T04:11:14.155Z,6.80
2022-07-29T04:16:17.461Z,7.30
2022-07-29T04:21:20.854Z,6.30
2022-07-29T04:26:24.402Z,6.00
2022-07-29T04:31:27.881Z,6.50
2022-07-29T04:36:31.205Z,5.30
2022-07-29T04:41:34.857Z,5.00
2022-07-29T04:46:38.507Z,5.10
2022-07-29T04:51:41.698Z,5.40
2022-07-29T04:56:45.298Z,3.60
2022-07-29T05:01:48.613Z,5.40
2022-07-29T05:06:51.893Z,4.80
2022-07-29T05:11:55.144Z,3.90
2022-07-29T05:16:58.411Z,4.30
2022-07-29T05:22:01.733Z,4.30
2022-07-29T05:27:05.138Z,4.20
2022-07-29T05:32:08.732Z,3.90
2022-07-29T05:37:12.243Z,4.30
2022-07-29T05:42:15.664Z,4.20
2022-07-29T05:47:19.093Z,5.20
2022-07-29T05:52:22.978Z,3.10
2022-07-29T05:57:26.700Z,3.00
2022-07-29T06:02:29.938Z,4.50
2022-07-29T06:07:33.951Z,4.10
2022-07-29T06:12:39.751Z,2.50
2022-07-29T06:18:00.095Z,2.90
2022-07-29T06:23:05.823Z,4.40
2022-07-29T06:28:09.114Z,2.00
2022-07-29T06:33:18.068Z,2.20
2022-07-29T06:38:30.747Z,2.70
2022-07-29T06:43:50.152Z,2.70
2022-07-29T06:48:55.531Z,2.80
2022-07-29T06:54:02.243Z,2.60
2022-07-29T06:59:16.842Z,2.10
2022-07-29T07:04:20.811Z,2.10
2022-07-29T07:09:24.736Z,4.20
2022-07-29T07:14:43.771Z,2.40
2022-07-29T07:19:47.030Z,3.10
2022-07-29T07:24:50.278Z,3.70
2022-07-29T07:29:53.552Z,2.60
2022-07-29T07:34:58.227Z,1.80
2022-07-29T07:40:03.336Z,1.80
2022-07-29T07:45:16.609Z,2.50
2022-07-29T07:50:20.055Z,5.00
2022-07-29T07:55:23.413Z,2.00
2022-07-29T08:00:26.756Z,1.70
2022-07-29T08:05:30.039Z,1.80
2022-07-29T08:10:52.355Z,2.20
2022-07-29T08:15:59.286Z,2.20
2022-07-29T08:21:02.843Z,2.30
2022-07-29T08:26:11.552Z,1.60
2022-07-29T08:31:15.712Z,2.30
2022-07-29T08:36:19.325Z,2.40
2022-07-29T08:41:23.247Z,2.10
2022-07-29T08:46:26.938Z,2.50
2022-07-29T08:51:33.080Z,3.40
2022-07-29T08:56:36.903Z,2.90
2022-07-29T09:01:42.520Z,1.60
2022-07-29T09:06:52.760Z,3.10
2022-07-29T09:11:56.384Z,3.70
2022-07-29T09:17:01.324Z,3.10
2022-07-29T09:22:07.218Z,2.30
2022-07-29T09:27:22.490Z,2.80
2022-07-29T09:32:26.110Z,2.10
2022-07-29T09:37:30.426Z,2.90
2022-07-29T09:42:35.128Z,2.40
2022-07-29T09:47:51.907Z,2.40
2022-07-29T09:52:55.149Z,3.60
2022-07-29T09:58:18.836Z,3.30
2022-07-29T10:03:54.103Z,3.20
2022-07-29T10:09:11.859Z,2.70
2022-07-29T10:14:16.479Z,4.50
2022-07-29T10:19:20.069Z,3.50
2022-07-29T10:24:23.446Z,2.90
2022-07-29T10:29:28.107Z,2.40
2022-07-29T10:35:04.229Z,3.10
2022-07-29T10:40:48.493Z,1.80
2022-07-29T10:45:58.677Z,3.10
2022-07-29T10:51:03.914Z,1.50
2022-07-29T10:56:32.380Z,1.90
2022-07-29T11:01:37.034Z,3.00
2022-07-29T11:06:59.823Z,2.70
2022-07-29T11:12:39.764Z,2.10
2022-07-29T11:17:55.049Z,1.30
2022-07-29T11:23:26.735Z,0.90
2022-07-29T11:28:31.419Z,1.40
2022-07-29T11:33:55.842Z,2.30
2022-07-29T11:39:37.079Z,2.60
2022-07-29T11:44:58.556Z,1.70
2022-07-29T11:50:11.209Z,3.20
2022-07-29T11:55:17.345Z,2.40
2022-07-29T12:00:34.856Z,1.90
2022-07-29T12:05:48.145Z,1.80
2022-07-29T12:10:52.904Z,1.90
2022-07-29T12:16:00.086Z,2.70
2022-07-29T12:21:06.857Z,1.60
2022-07-29T12:26:10.843Z,1.50
2022-07-29T12:31:43.848Z,1.70
2022-07-29T12:36:39.925Z,1.60
2022-07-29T12:41:43.725Z,1.60
2022-07-29T12:46:49.820Z,1.60
2022-07-29T12:51:53.083Z,1.50
2022-07-29T12:57:01.700Z,2.20
2022-07-29T13:02:05.837Z,1.60
2022-07-29T13:07:10.471Z,2.40
2022-07-29T13:12:15.502Z,1.00
2022-07-29T13:17:24.164Z,2.40
2022-07-29T13:22:27.842Z,2.10
2022-07-29T13:27:33.838Z,1.70
2022-07-29T13:32:39.193Z,2.10
2022-07-29T13:37:42.702Z,3.20
2022-07-29T13:42:46.641Z,3.30
2022-07-29T13:47:50.641Z,2.30
2022-07-29T13:52:54.429Z,2.30
2022-07-29T13:57:58.043Z,1.70
2022-07-29T14:03:01.752Z,1.50
2022-07-29T14:08:05.514Z,1.50
2022-07-29T14:13:24.579Z,1.80
2022-07-29T14:18:29.237Z,2.80
2022-07-29T14:23:32.613Z,2.30
2022-07-29T14:28:39.011Z,1.40
2022-07-29T14:33:46.249Z,4.30
2022-07-29T14:38:54.119Z,2.30
2022-07-29T14:43:57.624Z,2.30
2022-07-29T14:49:04.070Z,2.90
2022-07-29T14:54:10.818Z,3.10
2022-07-29T14:59:16.701Z,1.90
2022-07-29T15:04:20.263Z,1.50
2022-07-29T15:09:25.537Z,2.30
2022-07-29T15:14:29.200Z,2.30
2022-07-29T15:19:32.863Z,2.00
2022-07-29T15:24:36.413Z,1.60
2022-07-29T15:29:40.495Z,1.10
2022-07-29T15:34:46.486Z,2.10
2022-07-29T15:39:55.024Z,1.80
2022-07-29T15:45:10.933Z,3.50
2022-07-29T15:50:20.468Z,1.30
2022-07-29T15:55:24.659Z,1.50
2022-07-29T16:00:28.652Z,2.30
2022-07-29T16:05:32.881Z,2.00
2022-07-29T16:10:39.368Z,1.90
2022-07-29T16:16:01.997Z,1.60
2022-07-29T16:21:07.783Z,1.20
2022-07-29T16:26:14.378Z,1.80
2022-07-29T16:31:18.893Z,2.40
2022-07-29T16:36:22.311Z,1.40
2022-07-29T16:41:29.852Z,3.00
2022-07-29T16:46:37.863Z,1.40
2022-07-29T16:51:44.525Z,2.10
2022-07-29T16:56:47.939Z,2.30
2022-07-29T17:01:51.235Z,1.80
2022-07-29T17:06:57.595Z,2.10
2022-07-29T17:12:01.368Z,2.50
2022-07-29T17:17:05.729Z,1.60
2022-07-29T17:22:21.911Z,2.30
2022-07-29T17:27:26.970Z,2.20
2022-07-29T17:32:36.973Z,3.10
2022-07-29T17:37:40.425Z,2.50
2022-07-29T17:42:43.983Z,1.90
2022-07-29T17:47:47.371Z,2.10
2022-07-29T17:52:50.806Z,2.50
2022-07-29T17:57:57.192Z,5.10
2022-07-29T18:03:03.545Z,2.80
2022-07-29T18:08:10.291Z,3.50
2022-07-29T18:13:14.110Z,3.60
2022-07-29T18:18:19.484Z,3.20
2022-07-29T18:23:22.851Z,4.30
2022-07-29T18:28:26.100Z,4.00
2022-07-29T18:33:29.810Z,3.80
2022-07-29T18:38:35.743Z,3.30
2022-07-29T18:43:40.410Z,3.70
2022-07-29T18:48:44.943Z,4.60
2022-07-29T18:53:52.813Z,3.90
2022-07-29T18:58:56.779Z,4.20
2022-07-29T19:04:00.816Z,3.70
2022-07-29T19:09:04.780Z,3.60
2022-07-29T19:14:08.410Z,3.60
2022-07-29T19:19:12.195Z,4.00
2022-07-29T19:24:15.876Z,3.60
2022-07-29T19:29:19.578Z,5.40
2022-07-29T19:34:22.806Z,5.30
2022-07-29T19:39:34.705Z,3.50
2022-07-29T19:44:39.074Z,4.40
2022-07-29T19:49:42.587Z,5.00
2022-07-29T19:54:45.780Z,6.00
2022-07-29T19:59:49.025Z,6.40
2022-07-29T20:04:52.928Z,5.60
2022-07-29T20:09:56.588Z,5.10
2022-07-29T20:15:00.133Z,5.40
2022-07-29T20:20:05.020Z,5.30
2022-07-29T20:25:12.246Z,5.90
2022-07-29T20:30:16.779Z,4.00
2022-07-29T20:35:24.710Z,4.20
2022-07-29T20:40:30.007Z,5.40
2022-07-29T20:45:34.621Z,4.90
2022-07-29T20:50:37.788Z,5.60
2022-07-29T20:55:41.197Z,7.70
2022-07-29T21:00:44.460Z,6.00
2022-07-29T21:05:50.815Z,4.80
2022-07-29T21:10:54.304Z,4.30
2022-07-29T21:16:04.307Z,5.40
2022-07-29T21:21:10.291Z,5.80
2022-07-29T21:26:14.066Z,4.90
2022-07-29T21:31:18.745Z,6.10
2022-07-29T21:36:47.251Z,5.30
2022-07-29T21:41:46.456Z,5.10
2022-07-29T21:46:50.124Z,5.70
2022-07-29T21:51:53.310Z,6.30
2022-07-29T21:56:56.699Z,4.70
2022-07-29T22:02:01.222Z,7.30
2022-07-29T22:07:05.168Z,5.70
2022-07-29T22:12:08.482Z,5.40
2022-07-29T22:17:11.772Z,6.10
2022-07-29T22:22:15.171Z,7.10
2022-07-29T22:27:18.500Z,5.80
2022-07-29T22:32:21.679Z,5.30
2022-07-29T22:37:24.995Z,5.90
2022-07-29T22:42:28.276Z,7.00
2022-07-29T22:47:38.992Z,6.70
2022-07-29T22:52:50.062Z,7.10
2022-07-29T22:57:53.291Z,6.30
2022-07-29T23:02:56.581Z,4.80
2022-07-29T23:08:00.160Z,5.70
2022-07-29T23:13:03.405Z,7.20
2022-07-29T23:18:08.148Z,4.90
2022-07-29T23:23:11.748Z,5.60
2022-07-29T23:28:14.998Z,6.70
2022-07-29T23:33:19.952Z,5.20
2022-07-29T23:38:26.307Z,7.90
2022-07-29T23:43:29.587Z,5.60
2022-07-29T23:48:32.793Z,5.60
2022-07-29T23:53:38.116Z,8.60
2022-07-29T23:58:56.838Z,5.20
